Hauptseite
METAR-TAF:

METAR-TAF

Flughäfen :

Flughafen Nouakchott-Oumtounsy

Nouakchott, Mauretanien

Breite: 18-18-36N, Länge: 015-58-11W, Höhe: 3 m

Beobachtung

Neuester Wetterbericht von vor 42 Minuten, um 09:30 UTC
Wind 8 kt aus Nord/Nordost
Temperatur 19°C
Luftfeuchtigkeit 56%
Luftdruck 1015 hPa
Sichtweite: 8000 m

METAR: GQNO 160930Z 02008KT 8000 NSC 19/10 Q1015 NOSIG

Zeit: 10:12 (10:12 UTC)

Prognose

Neuester Wetterbericht von vor 4 Stunden und 52 Minuten, um 05:20 UTC
Gültige Prognose vom 16 um 06 UTC bis 17 um 12 UTC
Wind 10 kt aus Nord/Nordwest
Sichtweite: 8000 m
Zeitweise
vom 16 um 09 UTC bis 16 um 14 UTC
Wind 8 kt aus Nordost

TAF: GQNO 160520Z 1606/1712 34010KT 8000 NSC TEMPO 1609/1614 04008KT

Wetterbeobachtungen und Prognosen von mehr als 4000 Flughäfen (METAR und TAF Bericht).

Die verfügbaren Stationen werden durch gelbe und rote Markierungen auf der Karte dargestellt.

Führen Sie die Maus auf sie, um den Namen der Station zu sehen.

Darauf klicken, um die Beobachtung von Wetterbeobachtungen und Prognosen zu sehen.

Um die Karte zu ändern : klicken Sie auf den grünen Tasten mit einem schwarzen Kreuz Zum Vergrößern, auf den grünen Button mit einem Gedankenstrich zu verkleinern, oder auf die grünen Pfeile für benachbarte Karten.


METAR-TAF: